createdAt,value
2022-10-19T00:01:06.960Z,12.33
2022-10-19T00:03:36.138Z,12.53
2022-10-19T00:06:25.822Z,16.77
2022-10-19T00:09:02.585Z,16.60
2022-10-19T00:11:30.698Z,16.10
2022-10-19T00:13:58.437Z,12.93
2022-10-19T00:16:27.667Z,15.00
2022-10-19T00:18:57.941Z,14.43
2022-10-19T00:21:24.756Z,18.83
2022-10-19T00:23:51.529Z,16.97
2022-10-19T00:26:18.433Z,15.90
2022-10-19T00:28:45.798Z,15.30
2022-10-19T00:31:16.257Z,15.00
2022-10-19T00:33:46.684Z,16.37
2022-10-19T00:36:25.297Z,15.73
2022-10-19T00:38:53.184Z,16.47
2022-10-19T00:41:21.757Z,16.53
2022-10-19T00:43:59.139Z,16.17
2022-10-19T00:46:30.850Z,19.40
2022-10-19T00:49:03.232Z,20.77
2022-10-19T00:51:33.151Z,19.80
2022-10-19T00:54:02.292Z,21.00
2022-10-19T00:56:29.123Z,17.43
2022-10-19T00:58:56.387Z,19.07
2022-10-19T01:01:26.464Z,18.90
2022-10-19T01:03:53.366Z,21.70
2022-10-19T01:06:21.196Z,18.33
2022-10-19T01:08:47.978Z,18.40
2022-10-19T01:11:44.098Z,19.03
2022-10-19T01:14:23.188Z,18.83
2022-10-19T01:17:08.004Z,20.47
2022-10-19T01:20:05.796Z,18.33
2022-10-19T01:22:59.534Z,21.07
2022-10-19T01:25:54.030Z,19.63
2022-10-19T01:28:29.779Z,18.77
2022-10-19T01:31:05.925Z,18.83
2022-10-19T01:36:46.023Z,19.73
2022-10-19T01:39:20.597Z,20.40
2022-10-19T01:42:02.402Z,21.13
2022-10-19T01:44:50.810Z,22.30
2022-10-19T01:47:24.090Z,26.50
2022-10-19T01:50:01.975Z,26.83
2022-10-19T01:52:29.879Z,24.43
2022-10-19T01:54:59.686Z,27.73
2022-10-19T01:57:32.399Z,29.23
2022-10-19T01:59:59.365Z,28.43
2022-10-19T02:02:27.959Z,30.50
2022-10-19T02:04:57.535Z,29.10
2022-10-19T02:07:25.500Z,26.87
2022-10-19T02:09:52.279Z,24.33
2022-10-19T02:12:20.986Z,22.60
2022-10-19T02:14:53.253Z,21.73
2022-10-19T02:17:25.467Z,21.17
2022-10-19T02:19:53.782Z,20.77
2022-10-19T02:22:21.873Z,24.53
2022-10-19T02:24:48.657Z,24.07
2022-10-19T02:27:15.554Z,24.33
2022-10-19T02:29:42.409Z,23.97
2022-10-19T02:32:09.882Z,23.27
2022-10-19T02:34:38.637Z,22.57
2022-10-19T02:37:06.152Z,23.87
2022-10-19T02:39:33.236Z,25.43
2022-10-19T02:42:12.354Z,23.23
2022-10-19T02:44:44.327Z,23.40
2022-10-19T02:47:17.385Z,23.30
2022-10-19T02:49:45.255Z,28.30
2022-10-19T02:52:13.669Z,25.90
2022-10-19T02:54:42.659Z,26.17
2022-10-19T02:57:27.445Z,27.67
2022-10-19T02:59:54.217Z,28.80
2022-10-19T03:02:21.488Z,27.03
2022-10-19T03:07:18.127Z,28.80
2022-10-19T03:09:45.429Z,29.70
2022-10-19T03:12:13.488Z,31.53
2022-10-19T03:14:40.179Z,31.70
2022-10-19T03:17:07.096Z,30.43
2022-10-19T03:19:35.547Z,31.93
2022-10-19T03:22:02.553Z,31.30
2022-10-19T03:24:31.191Z,30.73
2022-10-19T03:26:57.912Z,30.67
2022-10-19T03:29:24.703Z,31.30
2022-10-19T03:31:51.596Z,29.40
2022-10-19T03:34:18.339Z,31.43
2022-10-19T03:36:45.198Z,31.60
2022-10-19T03:39:14.505Z,43.70
2022-10-19T03:41:55.402Z,39.28
2022-10-19T03:44:22.144Z,34.60
2022-10-19T03:46:48.911Z,33.63
2022-10-19T03:49:16.132Z,33.70
2022-10-19T03:51:42.921Z,31.73
2022-10-19T03:54:15.028Z,33.40
2022-10-19T03:56:42.450Z,31.80
2022-10-19T03:59:14.252Z,33.53
2022-10-19T04:01:43.984Z,31.93
2022-10-19T04:04:14.612Z,33.23
2022-10-19T04:06:43.615Z,30.97
2022-10-19T04:09:14.104Z,30.70
2022-10-19T04:11:43.814Z,33.37
2022-10-19T04:14:32.740Z,29.43
2022-10-19T04:17:04.020Z,32.10
2022-10-19T04:19:31.737Z,36.00
2022-10-19T04:21:58.987Z,36.93
2022-10-19T04:24:33.003Z,31.87
2022-10-19T08:32:14.692Z,18.47
2022-10-19T08:34:43.568Z,17.83
2022-10-19T08:37:25.957Z,16.37
2022-10-19T08:40:04.615Z,16.50
2022-10-19T08:42:53.718Z,16.10
2022-10-19T08:45:53.638Z,16.17
2022-10-19T08:48:29.920Z,14.60
2022-10-19T08:50:58.521Z,13.77
2022-10-19T08:53:52.311Z,13.55
2022-10-19T08:57:02.093Z,13.70
2022-10-19T08:59:53.055Z,11.65
2022-10-19T09:02:37.166Z,10.85
2022-10-19T09:05:14.412Z,11.27
2022-10-19T09:07:45.712Z,10.85
2022-10-19T09:10:18.964Z,10.13
2022-10-19T09:12:55.023Z,10.73
2022-10-19T09:15:27.607Z,10.48
2022-10-19T09:17:54.669Z,9.52
2022-10-19T09:20:35.557Z,9.73
2022-10-19T09:23:16.294Z,10.15
2022-10-19T09:25:46.367Z,8.90
2022-10-19T09:28:27.350Z,8.95
2022-10-19T09:31:00.438Z,8.68
2022-10-19T09:33:42.987Z,8.75
2022-10-19T09:36:18.337Z,8.88
2022-10-19T09:38:54.601Z,9.20
2022-10-19T09:41:22.842Z,9.65
2022-10-19T09:43:54.433Z,8.43
2022-10-19T09:46:58.090Z,8.57
2022-10-19T09:49:43.679Z,8.32
2022-10-19T09:52:34.963Z,8.50
2022-10-19T09:55:25.291Z,7.78
2022-10-19T09:58:02.303Z,8.50
2022-10-19T10:00:39.573Z,7.88
2022-10-19T10:03:08.817Z,7.80
2022-10-19T10:09:34.807Z,7.63
2022-10-19T10:12:04.452Z,8.57
2022-10-19T10:14:39.589Z,8.65
2022-10-19T10:17:18.679Z,8.25
2022-10-19T10:20:05.480Z,9.52
2022-10-19T10:22:38.820Z,10.00
2022-10-19T10:25:18.772Z,9.48
2022-10-19T10:28:08.995Z,10.32
2022-10-19T10:30:47.137Z,10.68
2022-10-19T10:33:44.655Z,10.27
2022-10-19T10:36:31.069Z,9.48
2022-10-19T10:39:31.252Z,8.80
2022-10-19T10:42:09.848Z,9.25
2022-10-19T10:44:39.007Z,9.95
2022-10-19T10:47:28.864Z,9.90
2022-10-19T10:50:06.768Z,9.45
2022-10-19T10:53:33.567Z,10.13
2022-10-19T10:56:05.153Z,10.05
2022-10-19T10:58:38.908Z,10.23
2022-10-19T11:01:58.530Z,9.32
2022-10-19T11:04:31.670Z,9.10
2022-10-19T11:07:08.460Z,9.50
2022-10-19T11:09:42.537Z,9.65
2022-10-19T11:12:23.391Z,11.40
2022-10-19T11:15:00.829Z,11.13
2022-10-19T11:17:38.154Z,9.80
2022-10-19T11:20:07.667Z,9.48
2022-10-19T11:23:06.547Z,8.73
2022-10-19T11:26:09.494Z,9.70
2022-10-19T11:29:11.154Z,8.90
2022-10-19T11:32:22.850Z,8.77
2022-10-19T11:35:25.833Z,8.65
2022-10-19T11:38:22.588Z,8.95
2022-10-19T11:41:17.886Z,8.93
2022-10-19T11:47:20.391Z,9.02
2022-10-19T11:50:44.079Z,9.23
2022-10-19T11:53:53.058Z,8.55
2022-10-19T11:57:05.528Z,9.18
2022-10-19T12:00:08.230Z,9.15
2022-10-19T12:03:22.695Z,9.00
2022-10-19T12:06:25.528Z,8.70
2022-10-19T12:09:33.822Z,9.18
2022-10-19T12:15:20.682Z,9.68
2022-10-19T12:17:50.472Z,9.00
2022-10-19T12:20:28.854Z,9.25
2022-10-19T12:22:58.843Z,9.50
2022-10-19T12:28:33.839Z,9.52
2022-10-19T12:31:02.773Z,9.40
2022-10-19T12:33:44.331Z,9.60
2022-10-19T12:39:23.946Z,9.70
2022-10-19T12:42:24.000Z,9.50
2022-10-19T12:45:55.347Z,9.50
2022-10-19T12:48:30.192Z,9.10
2022-10-19T12:51:02.834Z,9.85
2022-10-19T12:53:38.740Z,10.40
2022-10-19T12:56:47.293Z,10.05
2022-10-19T12:59:50.946Z,9.68
2022-10-19T13:05:00.748Z,9.27
2022-10-19T13:07:30.806Z,9.93
2022-10-19T13:10:02.380Z,11.18
2022-10-19T13:12:50.088Z,9.43
2022-10-19T13:15:38.718Z,8.88
2022-10-19T13:19:02.487Z,9.77
2022-10-19T13:22:05.141Z,9.95
2022-10-19T13:24:35.755Z,9.38
2022-10-19T13:27:03.031Z,9.70
2022-10-19T13:29:42.904Z,9.52
2022-10-19T13:33:03.531Z,11.18
2022-10-19T13:35:39.054Z,8.95
2022-10-19T13:38:24.538Z,9.38
2022-10-19T13:40:51.297Z,8.80
2022-10-19T13:43:38.434Z,9.25
2022-10-19T13:46:05.674Z,9.07
2022-10-19T13:49:08.762Z,7.57
2022-10-19T13:51:47.355Z,8.15
2022-10-19T13:54:56.436Z,8.50
2022-10-19T13:57:54.167Z,7.43
2022-10-19T14:00:55.049Z,7.63
2022-10-19T14:06:59.017Z,7.68
2022-10-19T14:09:29.066Z,7.32
2022-10-19T14:12:34.882Z,7.13
2022-10-19T14:15:11.431Z,7.60
2022-10-19T14:18:02.371Z,7.28
2022-10-19T14:20:39.314Z,7.20
2022-10-19T14:23:43.855Z,6.78
2022-10-19T14:26:26.682Z,7.43
2022-10-19T14:29:16.921Z,6.95
2022-10-19T14:31:45.618Z,8.07
2022-10-19T14:37:02.640Z,7.10
2022-10-19T14:39:35.615Z,6.97
2022-10-19T14:42:09.368Z,6.32
2022-10-19T14:44:38.831Z,6.13
2022-10-19T14:47:30.643Z,6.65
2022-10-19T14:49:57.620Z,6.28
2022-10-19T14:54:56.507Z,6.13
2022-10-19T14:57:38.588Z,6.57
2022-10-19T15:00:13.214Z,6.47
2022-10-19T15:02:48.824Z,6.25
2022-10-19T15:05:47.138Z,6.28
2022-10-19T15:08:40.117Z,6.57
2022-10-19T15:11:07.984Z,6.80
2022-10-19T15:13:41.567Z,6.40
2022-10-19T15:16:44.778Z,6.15
2022-10-19T15:19:31.950Z,6.63
2022-10-19T15:22:14.832Z,7.50
2022-10-19T15:24:55.788Z,5.85
2022-10-19T15:27:29.758Z,6.20
2022-10-19T15:30:27.773Z,6.20
2022-10-19T15:33:03.065Z,6.10
2022-10-19T15:35:45.075Z,6.30
2022-10-19T15:38:27.713Z,6.10
2022-10-19T15:41:17.020Z,6.03
2022-10-19T15:43:47.463Z,6.30
2022-10-19T15:46:22.284Z,6.95
2022-10-19T15:48:55.242Z,6.40
2022-10-19T15:51:25.936Z,6.07
2022-10-19T15:53:55.551Z,6.10
2022-10-19T15:56:25.352Z,6.10
2022-10-19T15:59:17.582Z,5.85
2022-10-19T16:01:45.696Z,6.40
2022-10-19T16:04:12.512Z,6.22
2022-10-19T16:06:41.887Z,6.45
2022-10-19T16:09:16.473Z,6.17
2022-10-19T16:11:46.826Z,5.83
2022-10-19T16:14:18.964Z,6.00
2022-10-19T16:16:54.853Z,6.20
2022-10-19T16:19:21.801Z,6.03
2022-10-19T16:21:50.437Z,5.80
2022-10-19T16:24:17.322Z,5.90
2022-10-19T16:26:44.187Z,6.10
2022-10-19T16:30:10.533Z,5.73
2022-10-19T16:32:38.148Z,6.07
2022-10-19T16:35:11.806Z,6.07
2022-10-19T16:40:54.671Z,5.80
2022-10-19T16:43:43.800Z,5.60
2022-10-19T16:46:11.182Z,5.80
2022-10-19T16:48:56.695Z,5.50
2022-10-19T16:52:11.689Z,5.33
2022-10-19T16:57:26.521Z,5.67
2022-10-19T17:02:22.633Z,6.37
2022-10-19T17:04:50.299Z,7.10
2022-10-19T17:07:22.057Z,6.80
2022-10-19T17:09:52.177Z,8.30
2022-10-19T17:13:06.873Z,6.97
2022-10-19T17:15:42.905Z,9.17
2022-10-19T17:18:20.282Z,10.90
2022-10-19T17:20:47.180Z,8.57
2022-10-19T17:23:21.549Z,7.40
2022-10-19T17:25:55.364Z,7.83
2022-10-19T17:28:28.191Z,7.57
2022-10-19T17:30:55.626Z,6.83
2022-10-19T17:33:28.636Z,6.80
2022-10-19T17:36:36.064Z,6.50
2022-10-19T17:39:07.955Z,6.70
2022-10-19T17:41:37.991Z,6.60
2022-10-19T17:44:05.676Z,6.32
2022-10-19T17:46:34.570Z,7.27
2022-10-19T17:49:02.268Z,6.90
2022-10-19T17:51:36.023Z,6.87
2022-10-19T17:54:08.876Z,6.73
2022-10-19T17:56:37.142Z,7.10
2022-10-19T17:59:04.784Z,7.03
2022-10-19T18:01:31.910Z,6.77
2022-10-19T18:03:59.038Z,7.17
2022-10-19T18:06:29.871Z,7.13
2022-10-19T18:08:59.053Z,7.23
2022-10-19T18:11:32.001Z,8.03
2022-10-19T18:14:04.299Z,7.37
2022-10-19T18:16:34.054Z,7.80
2022-10-19T18:19:02.472Z,9.00
2022-10-19T18:21:33.205Z,8.37
2022-10-19T18:24:02.107Z,8.60
2022-10-19T18:26:31.734Z,9.07
2022-10-19T18:29:08.462Z,11.07
2022-10-19T18:31:38.616Z,9.83
2022-10-19T18:34:07.711Z,8.60
2022-10-19T18:36:34.974Z,9.77
2022-10-19T18:39:14.587Z,10.37
2022-10-19T18:41:41.927Z,9.07
2022-10-19T18:44:13.258Z,9.73
2022-10-19T18:46:45.619Z,9.93
2022-10-19T18:49:13.191Z,10.37
2022-10-19T18:51:40.264Z,10.67
2022-10-19T18:54:07.288Z,10.20
2022-10-19T18:56:36.607Z,10.33
2022-10-19T18:59:07.980Z,10.73
2022-10-19T19:01:35.034Z,11.33
2022-10-19T19:04:09.073Z,10.80
2022-10-19T19:06:37.495Z,11.00
2022-10-19T19:09:08.064Z,11.10
2022-10-19T19:11:37.627Z,11.43
2022-10-19T19:14:12.280Z,11.57
2022-10-19T19:16:40.420Z,9.97
2022-10-19T19:19:08.397Z,10.77
2022-10-19T19:21:36.849Z,11.27
2022-10-19T19:24:06.577Z,11.37
2022-10-19T19:26:37.256Z,11.07
2022-10-19T19:29:10.766Z,11.53
2022-10-19T19:31:39.380Z,10.57
2022-10-19T19:34:07.868Z,11.83
2022-10-19T19:36:35.307Z,11.93
2022-10-19T19:39:02.767Z,13.00
2022-10-19T19:41:31.307Z,11.93
2022-10-19T19:43:59.053Z,12.60
2022-10-19T19:46:26.675Z,12.93
2022-10-19T19:49:00.346Z,12.43
2022-10-19T19:51:28.248Z,12.83
2022-10-19T19:53:55.148Z,13.53
2022-10-19T19:56:22.031Z,11.90
2022-10-19T19:58:53.651Z,12.17
2022-10-19T20:01:21.433Z,12.67
2022-10-19T20:03:48.599Z,12.87
2022-10-19T20:06:19.631Z,11.93
2022-10-19T20:08:49.138Z,13.17
2022-10-19T20:11:17.651Z,13.83
2022-10-19T20:13:49.293Z,14.97
2022-10-19T20:16:22.713Z,12.47
2022-10-19T20:18:55.792Z,14.03
2022-10-19T20:21:25.974Z,13.93
2022-10-19T20:23:52.882Z,13.73
2022-10-19T20:26:24.083Z,13.10
2022-10-19T20:28:52.087Z,13.97
2022-10-19T20:31:20.062Z,12.57
2022-10-19T20:33:48.032Z,13.43
2022-10-19T20:36:18.215Z,14.13
2022-10-19T20:38:51.378Z,12.83
2022-10-19T20:41:19.818Z,12.97
2022-10-19T20:43:46.857Z,12.83
2022-10-19T20:46:17.818Z,13.27
2022-10-19T20:48:45.520Z,13.73
2022-10-19T20:51:18.169Z,13.33
2022-10-19T20:53:46.736Z,13.30
2022-10-19T20:56:16.297Z,13.87
2022-10-19T20:58:44.036Z,13.43
2022-10-19T21:01:13.279Z,12.37
2022-10-19T21:03:46.195Z,12.47
2022-10-19T21:06:13.105Z,13.80
2022-10-19T21:08:39.941Z,13.73
2022-10-19T21:11:27.514Z,14.27
2022-10-19T21:14:00.200Z,15.43
2022-10-19T21:16:29.988Z,16.00
2022-10-19T21:18:57.298Z,16.03
2022-10-19T21:21:28.955Z,15.30
2022-10-19T21:23:58.460Z,14.43
2022-10-19T21:26:26.656Z,14.47
2022-10-19T21:28:53.677Z,14.00
2022-10-19T21:31:22.257Z,13.67
2022-10-19T21:33:49.630Z,14.20
2022-10-19T21:36:16.768Z,14.77
2022-10-19T21:38:43.838Z,15.00
2022-10-19T21:41:12.938Z,16.23
2022-10-19T21:43:40.008Z,15.80
2022-10-19T21:46:09.360Z,14.97
2022-10-19T21:48:36.650Z,14.70
2022-10-19T21:51:36.545Z,15.13
2022-10-19T21:54:05.369Z,15.80
2022-10-19T21:56:33.140Z,17.03
2022-10-19T21:58:59.936Z,20.03
2022-10-19T22:01:28.550Z,19.23
2022-10-19T22:04:00.382Z,19.43
2022-10-19T22:06:28.879Z,20.77
2022-10-19T22:08:55.938Z,20.30
2022-10-19T22:11:23.724Z,20.67
2022-10-19T22:13:57.204Z,21.63
2022-10-19T22:16:25.278Z,20.53
2022-10-19T22:18:52.874Z,21.30
2022-10-19T22:21:25.530Z,22.57
2022-10-19T22:23:54.197Z,21.07
2022-10-19T22:26:24.400Z,20.10
2022-10-19T22:28:51.453Z,18.33
2022-10-19T22:31:18.221Z,20.03
2022-10-19T22:33:45.208Z,19.20
2022-10-19T22:36:13.071Z,20.37
2022-10-19T22:38:40.519Z,22.90
2022-10-19T22:41:07.327Z,21.40
2022-10-19T22:43:34.015Z,21.93
2022-10-19T22:46:00.902Z,21.03
2022-10-19T22:48:27.626Z,19.43
2022-10-19T22:50:55.287Z,20.43
2022-10-19T22:53:23.081Z,20.07
2022-10-19T22:55:50.432Z,19.93
2022-10-19T22:58:18.110Z,20.90
2022-10-19T23:00:44.861Z,20.73
2022-10-19T23:03:11.674Z,21.57
2022-10-19T23:05:38.348Z,21.23
2022-10-19T23:08:05.256Z,21.63
2022-10-19T23:10:32.670Z,21.07
2022-10-19T23:12:59.364Z,21.30
2022-10-19T23:15:26.353Z,21.67
2022-10-19T23:17:53.039Z,22.23
2022-10-19T23:20:19.755Z,23.77
2022-10-19T23:22:47.092Z,24.87
2022-10-19T23:25:13.715Z,27.00
2022-10-19T23:27:45.667Z,24.60
2022-10-19T23:30:12.409Z,23.33
2022-10-19T23:32:39.412Z,22.03
2022-10-19T23:35:07.416Z,23.20
2022-10-19T23:37:35.244Z,21.70
2022-10-19T23:40:02.611Z,21.67
2022-10-19T23:42:29.325Z,20.17
2022-10-19T23:44:56.001Z,20.47
2022-10-19T23:47:22.743Z,19.83
2022-10-19T23:49:49.409Z,21.13
2022-10-19T23:52:16.097Z,21.07
2022-10-19T23:54:42.733Z,20.53
2022-10-19T23:57:09.414Z,21.80
2022-10-19T23:59:36.127Z,23.33
